Time;durP1;ratioP1;P1;durP2;ratioP2;P2;SDS_P1;SDS_P2;PMS_P1;PMS_P2;Temp;Humidity;BMP_temperature;BMP_pressure;BME280_temperature;BME280_humidity;BME280_pressure;Samples;Min_cycle;Max_cycle;Signal;HPM_P1;HPM_P2
2021/07/05 00:02:14;;;;;;;4.85;4.20;;;;;;;17.00;95.18;94038.88;1702449;82;21137;-57
2021/07/05 00:04:42;;;;;;;5.92;3.92;;;;;;;17.01;95.24;94034.22;1698084;82;20982;-58
2021/07/05 00:07:10;;;;;;;8.65;4.53;;;;;;;17.04;95.23;94034.59;1713686;83;21047;-58
2021/07/05 00:09:37;;;;;;;7.97;4.25;;;;;;;17.05;95.29;94033.33;1707648;83;21028;-58
2021/07/05 00:12:06;;;;;;;5.80;4.30;;;;;;;17.06;95.29;94039.66;1700760;82;21568;-57
2021/07/05 00:14:36;;;;;;;6.92;3.83;;;;;;;17.09;95.37;94035.21;1699880;82;21967;-56
2021/07/05 00:17:05;;;;;;;5.55;4.03;;;;;;;17.11;94.98;94034.72;1706381;82;21584;-57
2021/07/05 00:19:32;;;;;;;9.25;4.65;;;;;;;17.08;94.94;94040.64;1705454;83;20988;-57
2021/07/05 00:22:00;;;;;;;9.23;3.95;;;;;;;17.09;95.20;94034.47;1707718;83;21008;-57
2021/07/05 00:24:26;;;;;;;5.92;4.65;;;;;;;17.05;95.04;94026.37;1704382;83;21049;-56
2021/07/05 00:26:55;;;;;;;4.80;4.08;;;;;;;17.02;95.19;94025.23;1704582;83;21018;-56
2021/07/05 00:29:24;;;;;;;5.90;4.20;;;;;;;17.04;95.62;94015.75;1697551;82;21473;-57
2021/07/05 00:31:52;;;;;;;6.35;4.42;;;;;;;17.06;95.41;94018.81;1704362;82;21033;-58
2021/07/05 00:34:19;;;;;;;6.58;4.72;;;;;;;17.06;95.33;94014.64;1707963;84;21008;-58
2021/07/05 00:36:47;;;;;;;8.98;5.00;;;;;;;17.06;95.21;94013.25;1707707;83;21456;-58
2021/07/05 00:39:15;;;;;;;5.67;4.45;;;;;;;17.06;95.35;94013.25;1706155;82;21063;-58
2021/07/05 00:41:43;;;;;;;6.90;4.65;;;;;;;17.12;95.60;94012.61;1711606;83;21584;-58
2021/07/05 00:44:10;;;;;;;8.98;4.72;;;;;;;17.20;95.62;94014.98;1695581;82;21545;-57
2021/07/05 00:46:36;;;;;;;6.12;4.37;;;;;;;17.26;95.53;94008.16;1708960;82;21596;-59
2021/07/05 00:49:03;;;;;;;7.53;4.72;;;;;;;17.33;95.23;94005.50;1694405;82;21572;-57
2021/07/05 00:51:30;;;;;;;7.00;4.83;;;;;;;17.36;94.87;94003.89;1698276;82;21136;-59
2021/07/05 00:53:56;;;;;;;8.20;4.10;;;;;;;17.39;94.33;94006.27;1704574;83;21024;-58
2021/07/05 00:56:23;;;;;;;6.28;4.20;;;;;;;17.37;93.83;93999.06;1679055;83;21074;-58
2021/07/05 00:58:50;;;;;;;7.40;4.33;;;;;;;17.30;93.56;93991.23;1700409;82;21046;-57
2021/07/05 01:01:17;;;;;;;4.65;4.17;;;;;;;17.22;93.67;93994.38;1699168;82;21045;-57
2021/07/05 01:03:44;;;;;;;6.17;3.98;;;;;;;17.11;93.76;93982.65;1701954;82;21134;-58
2021/07/05 01:06:11;;;;;;;7.53;4.60;;;;;;;17.02;94.28;93980.77;1699706;82;20991;-58
2021/07/05 01:08:37;;;;;;;7.03;3.75;;;;;;;17.00;94.60;93979.13;1702202;83;21073;-57
2021/07/05 01:11:04;;;;;;;8.35;4.83;;;;;;;16.99;94.66;93974.84;1697190;82;21072;-58
2021/07/05 01:13:31;;;;;;;8.33;4.62;;;;;;;16.95;94.83;93972.95;1709523;83;21051;-58
2021/07/05 01:15:58;;;;;;;5.87;4.35;;;;;;;16.95;95.31;93972.95;1709423;83;21143;-58
2021/07/05 01:18:25;;;;;;;6.75;4.40;;;;;;;16.99;95.51;93970.05;1700020;83;20966;-59
2021/07/05 01:20:52;;;;;;;4.17;3.75;;;;;;;17.01;95.30;93970.30;1706817;82;21476;-57
2021/07/05 01:23:19;;;;;;;6.95;4.33;;;;;;;17.01;95.41;93968.91;1680757;83;21016;-58
2021/07/05 01:25:45;;;;;;;6.08;4.62;;;;;;;17.02;95.43;93973.20;1717307;83;21082;-58
2021/07/05 01:28:12;;;;;;;8.53;5.80;;;;;;;17.01;95.51;93977.86;1708351;82;21154;-58
2021/07/05 01:30:40;;;;;;;6.85;4.40;;;;;;;17.00;95.75;93985.45;1701124;82;21079;-58
2021/07/05 01:33:08;;;;;;;6.72;4.30;;;;;;;17.03;95.82;93985.83;1703476;82;20992;-58
2021/07/05 01:35:35;;;;;;;7.12;4.25;;;;;;;17.05;95.92;93988.09;1713897;83;21031;-58
2021/07/05 01:38:08;;;;;;;5.92;3.85;;;;;;;17.03;95.67;93984.44;1706784;82;20987;-58
2021/07/05 01:40:36;;;;;;;4.33;3.80;;;;;;;16.99;95.68;93991.51;1696029;82;21198;-58
2021/07/05 01:43:03;;;;;;;8.75;3.42;;;;;;;16.96;95.76;93989.75;1701392;82;21102;-58
2021/07/05 01:45:32;;;;;;;3.50;3.20;;;;;;;16.94;95.88;93993.02;1712531;83;21023;-58
2021/07/05 01:47:59;;;;;;;7.87;3.33;;;;;;;16.94;96.03;93990.89;1699895;82;21025;-57
2021/07/05 01:50:26;;;;;;;3.42;3.12;;;;;;;16.94;96.08;93989.50;1702173;82;21521;-57
2021/07/05 01:52:53;;;;;;;6.62;3.90;;;;;;;16.94;96.15;93986.72;1698141;82;21141;-58
2021/07/05 01:55:30;;;;;;;3.62;3.17;;;;;;;16.94;95.96;93986.72;1700463;82;21454;-58
2021/07/05 01:57:58;;;;;;;7.37;3.30;;;;;;;16.93;95.90;93985.20;1695073;83;21157;-58
2021/07/05 02:00:27;;;;;;;3.12;2.92;;;;;;;16.94;96.03;94003.39;1708364;83;21038;-58
2021/07/05 02:02:54;;;;;;;6.53;3.58;;;;;;;16.94;95.99;94002.00;1709970;82;21534;-58
2021/07/05 02:05:21;;;;;;;4.17;3.22;;;;;;;16.90;96.14;93998.08;1696882;82;21491;-57
2021/07/05 02:07:49;;;;;;;4.33;3.45;;;;;;;16.89;96.14;94001.38;1705460;82;20967;-58
2021/07/05 02:10:22;;;;;;;3.70;3.30;;;;;;;16.85;96.31;94000.23;1662122;82;21462;-58
2021/07/05 02:12:48;;;;;;;4.12;3.70;;;;;;;16.86;96.48;93996.81;1708728;82;21026;-58
2021/07/05 02:15:15;;;;;;;5.42;4.08;;;;;;;16.88;96.64;94002.64;1698124;83;21033;-58
2021/07/05 02:17:42;;;;;;;7.97;5.47;;;;;;;16.90;96.96;94005.03;1693865;82;21089;-58
2021/07/05 02:20:13;;;;;;;5.12;3.90;;;;;;;16.97;97.21;94014.88;1706675;82;21016;-59
2021/07/05 02:22:40;;;;;;;6.20;3.92;;;;;;;17.05;97.10;94013.09;1699277;82;21073;-56
2021/07/05 02:25:11;;;;;;;7.42;4.05;;;;;;;17.09;96.75;94013.62;1699386;82;21452;-58
2021/07/05 02:27:39;;;;;;;12.20;3.62;;;;;;;17.15;96.55;94010.97;1704365;83;21120;-59
2021/07/05 02:30:08;;;;;;;10.18;4.08;;;;;;;17.18;96.17;94014.12;1699322;82;21792;-58
2021/07/05 02:32:36;;;;;;;5.45;3.65;;;;;;;17.17;95.85;94015.39;1704132;83;21046;-59
2021/07/05 02:35:05;;;;;;;6.45;4.28;;;;;;;17.13;95.65;94015.51;1685043;83;21108;-59
2021/07/05 02:37:32;;;;;;;4.97;4.12;;;;;;;17.07;95.56;94011.98;1702689;82;21046;-57
2021/07/05 02:39:58;;;;;;;9.05;4.22;;;;;;;17.01;95.71;94011.21;1694899;82;21026;-58
2021/07/05 02:42:25;;;;;;;5.45;3.80;;;;;;;17.00;96.04;94016.64;1715356;83;21123;-58
2021/07/05 02:44:52;;;;;;;6.10;3.80;;;;;;;17.02;96.28;94007.17;1728227;83;21098;-59
2021/07/05 02:47:19;;;;;;;4.45;4.00;;;;;;;17.04;96.53;94008.19;1697346;82;21025;-58
2021/07/05 02:49:45;;;;;;;4.25;3.87;;;;;;;17.10;96.40;94010.32;1706778;82;21028;-58
2021/07/05 02:52:13;;;;;;;4.65;4.15;;;;;;;17.09;96.18;94013.62;1703771;83;21068;-58
2021/07/05 02:54:41;;;;;;;9.43;4.12;;;;;;;17.08;96.07;94014.89;1702482;83;21139;-58
2021/07/05 02:57:08;;;;;;;5.22;4.20;;;;;;;17.04;95.89;94026.88;1704962;83;21081;-58
2021/07/05 02:59:35;;;;;;;5.30;4.55;;;;;;;17.02;96.08;94030.79;1697556;82;20984;-58
2021/07/05 03:02:03;;;;;;;6.47;4.40;;;;;;;17.04;96.36;94033.81;1709832;83;21038;-59
2021/07/05 03:04:30;;;;;;;4.67;3.60;;;;;;;17.09;96.76;94024.74;1690163;83;21019;-59
2021/07/05 03:06:57;;;;;;;6.97;3.52;;;;;;;17.14;96.48;94024.74;1707526;83;21121;-57
2021/07/05 03:09:23;;;;;;;5.08;3.25;;;;;;;17.16;96.22;94024.22;1699427;82;21008;-57
2021/07/05 03:11:50;;;;;;;4.53;3.50;;;;;;;17.19;95.98;94034.32;1701528;83;21576;-58
2021/07/05 03:14:16;;;;;;;6.30;3.45;;;;;;;17.20;95.77;94038.61;1709276;82;21085;-59
2021/07/05 03:16:43;;;;;;;5.78;4.42;;;;;;;17.18;95.78;94034.20;1674375;83;21104;-58
2021/07/05 03:19:10;;;;;;;8.60;4.22;;;;;;;17.13;95.56;94034.97;1687387;83;21139;-58
2021/07/05 03:21:38;;;;;;;6.47;4.08;;;;;;;17.07;95.62;94029.41;1707736;83;21460;-60
2021/07/05 03:24:06;;;;;;;6.33;3.90;;;;;;;17.07;95.82;94025.88;1698761;82;21672;-58
2021/07/05 03:26:32;;;;;;;10.13;4.22;;;;;;;17.09;95.78;94026.13;1695299;82;21073;-58
2021/07/05 03:28:59;;;;;;;12.05;4.50;;;;;;;17.11;95.81;94029.16;1708102;81;20960;-56
2021/07/05 03:31:26;;;;;;;8.05;4.83;;;;;;;17.13;95.79;94030.15;1711487;83;21141;-58
2021/07/05 03:33:52;;;;;;;11.55;4.53;;;;;;;17.18;96.01;94036.36;1707416;83;21067;-58
2021/07/05 03:36:20;;;;;;;4.72;3.80;;;;;;;17.24;96.15;94029.41;1710036;83;21510;-58
2021/07/05 03:38:47;;;;;;;10.40;4.65;;;;;;;17.31;96.10;94032.41;1714420;83;21012;-59
2021/07/05 03:41:15;;;;;;;6.90;4.30;;;;;;;17.36;95.84;94032.31;1707221;83;21024;-58
2021/07/05 03:43:41;;;;;;;7.35;4.58;;;;;;;17.42;95.76;94038.64;1706800;82;21144;-59
2021/07/05 03:46:08;;;;;;;7.85;3.75;;;;;;;17.45;95.36;94031.41;1709492;83;20968;-59
2021/07/05 03:48:36;;;;;;;4.72;4.22;;;;;;;17.50;94.93;94035.45;1707657;83;21079;-59
2021/07/05 03:51:03;;;;;;;4.85;4.00;;;;;;;17.50;94.63;94034.81;1706904;83;21560;-59
2021/07/05 03:53:30;;;;;;;6.83;3.90;;;;;;;17.52;94.75;94028.75;1705463;83;21560;-57
2021/07/05 03:55:57;;;;;;;6.65;3.60;;;;;;;17.56;94.93;94025.84;1709556;83;21131;-58
2021/07/05 03:58:24;;;;;;;5.15;3.67;;;;;;;17.61;94.32;94030.63;1711635;83;21174;-57
2021/07/05 04:00:50;;;;;;;5.17;3.77;;;;;;;17.63;93.96;94027.34;1707918;84;21008;-59
2021/07/05 04:03:17;;;;;;;5.85;3.80;;;;;;;17.64;93.87;94026.08;1707825;84;21544;-59
2021/07/05 04:05:46;;;;;;;5.42;3.67;;;;;;;17.63;93.77;94030.12;1697928;83;21085;-58
2021/07/05 04:08:14;;;;;;;6.65;3.98;;;;;;;17.62;93.97;94021.66;1666071;83;21750;-57
2021/07/05 04:10:41;;;;;;;4.40;3.20;;;;;;;17.61;93.93;94024.32;1709636;82;21101;-58
2021/07/05 04:13:10;;;;;;;3.92;3.02;;;;;;;17.59;93.85;94029.61;1711641;83;21067;-58
2021/07/05 04:15:37;;;;;;;4.58;3.50;;;;;;;17.58;93.93;94026.70;1703299;82;21068;-58
2021/07/05 04:18:05;;;;;;;4.00;3.58;;;;;;;17.59;94.04;94027.59;1703826;82;21046;-57
2021/07/05 04:20:33;;;;;;;4.65;3.67;;;;;;;17.58;94.03;94029.48;1704786;82;21135;-59
2021/07/05 04:23:00;;;;;;;7.95;4.33;;;;;;;17.57;94.16;94032.92;1707667;84;21020;-59
2021/07/05 04:25:27;;;;;;;7.08;3.70;;;;;;;17.57;94.27;94034.92;1704577;83;21120;-57
2021/07/05 04:27:55;;;;;;;4.25;3.72;;;;;;;17.57;94.20;94033.53;1696431;82;21030;-58
2021/07/05 04:30:22;;;;;;;11.15;3.87;;;;;;;17.57;94.25;94038.48;1694475;82;21014;-59
2021/07/05 04:32:52;;;;;;;6.47;4.33;;;;;;;17.60;94.35;94033.91;1688750;83;40211;-60
2021/07/05 04:35:19;;;;;;;6.58;3.98;;;;;;;17.63;94.29;94032.26;1704479;82;21460;-58
2021/07/05 04:37:48;;;;;;;6.62;4.75;;;;;;;17.64;94.23;94037.95;1707545;83;21005;-59
2021/07/05 04:40:20;;;;;;;9.08;5.45;;;;;;;17.62;94.22;94034.18;1711954;83;20992;-59
2021/07/05 04:42:48;;;;;;;11.18;4.62;;;;;;;17.59;94.26;94029.61;1717102;83;21059;-59
2021/07/05 04:45:17;;;;;;;8.68;4.30;;;;;;;17.61;94.38;94038.23;1708845;83;21195;-58
2021/07/05 04:47:44;;;;;;;5.62;4.37;;;;;;;17.63;94.35;94035.69;1690825;83;21031;-59
2021/07/05 04:50:14;;;;;;;12.53;5.70;;;;;;;17.66;94.29;94040.23;1709530;83;21015;-57
2021/07/05 04:52:40;;;;;;;5.65;5.08;;;;;;;17.62;94.34;94041.88;1708201;82;21031;-57
2021/07/05 04:55:09;;;;;;;8.93;5.47;;;;;;;17.63;94.48;94042.00;1706182;82;20958;-57
2021/07/05 04:57:36;;;;;;;6.80;6.10;;;;;;;17.66;94.62;94036.06;1696550;83;21960;-58
2021/07/05 05:00:07;;;;;;;7.45;6.12;;;;;;;17.71;94.54;94033.89;1702049;82;21608;-59
2021/07/05 05:02:35;;;;;;;8.60;6.20;;;;;;;17.74;94.56;94032.24;1700042;82;21005;-58
2021/07/05 05:05:07;;;;;;;5.95;5.08;;;;;;;17.79;94.69;94027.94;1707401;82;21154;-57
2021/07/05 05:07:34;;;;;;;7.12;5.30;;;;;;;17.82;94.31;94019.95;1703110;82;21555;-58
2021/07/05 05:10:07;;;;;;;5.75;5.12;;;;;;;17.85;94.10;94029.41;1705319;82;21128;-59
2021/07/05 05:12:34;;;;;;;5.90;4.35;;;;;;;17.89;93.97;94036.11;1703875;82;28162;-59
2021/07/05 05:15:02;;;;;;;6.78;5.08;;;;;;;17.90;93.79;94025.87;1706283;83;20971;-59
2021/07/05 05:17:30;;;;;;;5.60;3.77;;;;;;;17.91;93.53;94034.34;1698748;82;21019;-58
2021/07/05 05:19:58;;;;;;;6.42;4.42;;;;;;;17.93;93.68;94038.76;1697943;83;21046;-58
2021/07/05 05:22:25;;;;;;;8.53;4.03;;;;;;;17.97;93.65;94031.55;1693138;83;21142;-57
2021/07/05 05:24:52;;;;;;;4.72;4.05;;;;;;;18.01;93.35;94029.25;1690240;83;21065;-56
2021/07/05 05:27:19;;;;;;;6.40;3.70;;;;;;;18.06;93.24;94036.81;1712519;82;21002;-58
2021/07/05 05:29:45;;;;;;;8.68;4.22;;;;;;;18.11;92.95;94034.01;1706653;83;20999;-59
2021/07/05 05:32:14;;;;;;;4.67;3.67;;;;;;;18.19;92.95;94030.18;1705450;83;21497;-58
2021/07/05 05:34:40;;;;;;;7.95;4.47;;;;;;;18.28;92.37;94041.03;1705600;83;21793;-58
2021/07/05 05:37:07;;;;;;;6.95;3.90;;;;;;;18.29;92.13;94034.20;1699842;81;21038;-58
2021/07/05 05:39:34;;;;;;;5.67;3.50;;;;;;;18.33;91.95;94043.06;1712114;82;20991;-60
2021/07/05 05:42:01;;;;;;;6.58;3.67;;;;;;;18.42;91.71;94048.31;1709840;82;21009;-60
2021/07/05 05:44:27;;;;;;;7.67;4.50;;;;;;;18.50;91.23;94036.00;1704563;82;21029;-68
2021/07/05 05:46:54;;;;;;;4.87;3.87;;;;;;;18.56;91.10;94033.30;1709309;82;21161;-59
2021/07/05 05:49:21;;;;;;;5.12;4.40;;;;;;;18.62;90.78;94034.67;1702409;81;21078;-59
2021/07/05 05:51:49;;;;;;;9.28;4.45;;;;;;;18.65;90.43;94037.16;1695753;82;21052;-60
2021/07/05 05:54:16;;;;;;;4.12;3.67;;;;;;;18.71;90.19;94039.91;1668225;84;21057;-59
2021/07/05 05:56:51;;;;;;;6.53;3.90;;;;;;;18.78;90.08;94046.32;1652635;84;21101;-67
2021/07/05 05:59:16;;;;;;;4.40;4.00;;;;;;;18.83;90.09;94046.94;1698875;82;22475;-60
2021/07/05 06:01:49;;;;;;;9.93;6.22;;;;;;;18.90;89.84;94051.95;1695141;82;21085;-57
2021/07/05 06:04:12;;;;;;;4.58;3.67;;;;;;;18.98;89.64;94052.27;1706875;82;21180;-59
2021/07/05 06:06:39;;;;;;;5.25;3.62;;;;;;;19.07;89.18;94052.59;1712421;81;21138;-59
2021/07/05 06:09:06;;;;;;;4.90;3.10;;;;;;;19.15;88.94;94052.91;1678869;83;21057;-59
2021/07/05 06:11:35;;;;;;;4.50;3.00;;;;;;;19.22;88.02;94049.57;1650581;85;21138;-60
2021/07/05 06:14:01;;;;;;;5.17;3.62;;;;;;;19.25;87.00;94048.56;1652429;85;21110;-59
2021/07/05 06:16:28;;;;;;;3.67;3.33;;;;;;;19.30;86.38;94040.77;1697822;82;21035;-55
2021/07/05 06:18:55;;;;;;;5.60;3.20;;;;;;;19.33;86.08;94046.70;1700980;82;21017;-57
2021/07/05 06:21:21;;;;;;;3.75;3.35;;;;;;;19.40;85.69;94043.98;1652047;84;21076;-59
2021/07/05 06:23:50;;;;;;;3.62;3.00;;;;;;;19.48;84.97;94046.31;1664761;84;21121;-58
2021/07/05 06:26:17;;;;;;;3.75;3.30;;;;;;;19.58;84.11;94048.23;1648873;85;21195;-57
2021/07/05 06:28:43;;;;;;;8.05;3.85;;;;;;;19.68;83.27;94042.45;1717468;82;21051;-58
2021/07/05 06:31:10;;;;;;;5.28;3.37;;;;;;;19.79;82.13;94038.16;1719025;82;21451;-61
2021/07/05 06:33:36;;;;;;;4.53;2.80;;;;;;;19.90;82.38;94039.41;1709449;82;21052;-57
2021/07/05 06:36:04;;;;;;;18.77;3.90;;;;;;;20.03;82.13;94038.79;1706848;82;21129;-58
2021/07/05 06:38:32;;;;;;;6.28;4.15;;;;;;;20.16;81.17;94044.60;1700580;82;21604;-59
2021/07/05 06:40:58;;;;;;;10.88;4.15;;;;;;;20.33;81.14;94052.77;1683027;83;21063;-60
2021/07/05 06:43:25;;;;;;;3.92;3.37;;;;;;;20.45;79.92;94045.77;1690418;82;21065;-56
2021/07/05 06:45:51;;;;;;;5.42;3.45;;;;;;;20.52;77.99;94038.20;1718399;81;20998;-59
2021/07/05 06:48:19;;;;;;;3.52;3.10;;;;;;;20.55;77.22;94044.12;1709301;82;21075;-58
2021/07/05 06:50:46;;;;;;;13.93;3.98;;;;;;;20.63;76.55;94038.03;1704862;82;21610;-60
2021/07/05 06:53:13;;;;;;;4.17;3.00;;;;;;;20.66;76.32;94038.37;1671414;83;21108;-60
2021/07/05 06:55:39;;;;;;;7.70;4.15;;;;;;;20.66;75.27;94038.37;1674559;83;21047;-58
2021/07/05 06:58:06;;;;;;;7.70;4.50;;;;;;;20.64;75.41;94035.35;1645241;85;21188;-58
2021/07/05 07:00:33;;;;;;;3.87;3.47;;;;;;;20.68;75.09;94039.99;1676807;83;21136;-60
2021/07/05 07:03:01;;;;;;;5.08;3.83;;;;;;;20.71;74.94;94040.36;1639364;85;22233;-62
2021/07/05 07:05:29;;;;;;;10.03;4.70;;;;;;;20.79;75.06;94031.45;1699119;82;20981;-60
2021/07/05 07:07:56;;;;;;;10.20;3.95;;;;;;;20.85;74.67;94028.73;1702256;81;21111;-59
2021/07/05 07:10:24;;;;;;;8.93;3.90;;;;;;;20.91;74.83;94034.24;1658795;86;21009;-57
2021/07/05 07:12:54;;;;;;;6.60;3.87;;;;;;;20.98;74.52;94041.37;1643114;84;21940;-59
2021/07/05 07:15:23;;;;;;;12.50;4.37;;;;;;;21.06;73.60;94038.70;1713184;81;21309;-58
2021/07/05 07:20:18;;;;;;;5.70;3.62;;;;;;;21.10;74.19;94032.17;1708321;81;21048;-57
2021/07/05 07:22:44;;;;;;;5.90;3.87;;;;;;;21.25;74.19;94029.66;1715608;82;21149;-67
2021/07/05 07:25:13;;;;;;;5.28;3.50;;;;;;;21.38;73.97;94030.44;1706950;82;21106;-66
2021/07/05 07:27:40;;;;;;;6.70;3.85;;;;;;;21.52;73.34;94028.42;1696182;81;21563;-65
2021/07/05 07:30:09;;;;;;;9.00;4.30;;;;;;;21.71;73.40;94027.73;1681397;82;21049;-61
2021/07/05 07:32:36;;;;;;;9.68;4.20;;;;;;;21.86;73.06;94025.16;1705830;82;21008;-67
2021/07/05 07:35:04;;;;;;;10.25;5.20;;;;;;;22.03;72.69;94020.75;1706683;82;21087;-57
2021/07/05 07:37:31;;;;;;;4.67;3.52;;;;;;;22.19;71.64;94026.04;1704411;82;21144;-56
2021/07/05 07:40:14;;;;;;;17.50;10.98;;;;;;;22.40;71.25;94028.95;1701777;82;21484;-55
2021/07/05 07:42:32;;;;;;;11.18;5.08;;;;;;;22.50;70.10;94030.77;1711046;82;21653;-58
2021/07/05 07:44:59;;;;;;;4.75;3.77;;;;;;;22.61;69.34;94026.33;1661484;84;21157;-57
2021/07/05 07:47:26;;;;;;;6.58;4.05;;;;;;;22.79;68.77;94028.87;1708175;82;21143;-57
2021/07/05 07:49:54;;;;;;;5.53;3.62;;;;;;;22.94;65.94;94027.64;1697860;82;21054;-59
2021/07/05 07:52:22;;;;;;;8.33;4.75;;;;;;;23.01;65.40;94033.34;1693591;83;21104;-58
2021/07/05 07:54:49;;;;;;;6.28;3.92;;;;;;;23.00;64.75;94027.63;1696556;83;21497;-59
2021/07/05 07:57:20;;;;;;;4.10;3.70;;;;;;;23.00;64.26;94029.69;1714064;82;21349;-59
2021/07/05 07:59:45;;;;;;;11.57;4.58;;;;;;;23.00;64.27;94031.83;1737954;81;21045;-57
2021/07/05 08:02:12;;;;;;;20.32;4.58;;;;;;;22.95;64.30;94027.11;1694286;83;21252;-58
2021/07/05 08:04:41;;;;;;;7.58;4.00;;;;;;;22.92;64.62;94028.20;1703917;82;21071;-59
2021/07/05 08:07:07;;;;;;;6.47;4.15;;;;;;;22.90;64.44;94032.20;1678072;82;21121;-59
2021/07/05 08:09:36;;;;;;;9.08;4.15;;;;;;;22.92;65.28;94035.85;1703781;82;21051;-59
2021/07/05 08:12:07;;;;;;;3.80;3.33;;;;;;;22.99;65.67;94033.13;1712037;81;21493;-57
2021/07/05 08:14:34;;;;;;;3.83;3.47;;;;;;;23.03;65.14;94035.61;1713597;81;21169;-60
2021/07/05 08:17:02;;;;;;;7.62;6.72;;;;;;;23.02;64.52;94032.04;1702406;82;21043;-60
2021/07/05 08:19:29;;;;;;;5.83;4.55;;;;;;;23.04;65.02;94032.91;1716667;81;21416;-61
2021/07/05 08:21:56;;;;;;;4.62;4.08;;;;;;;23.06;65.48;94032.45;1722828;81;22417;-58
2021/07/05 08:24:23;;;;;;;7.30;4.58;;;;;;;23.08;66.19;94035.48;1698017;82;21057;-58
2021/07/05 08:26:49;;;;;;;6.37;4.42;;;;;;;23.06;65.16;94022.62;1697379;81;21148;-58
2021/07/05 08:29:16;;;;;;;6.80;4.53;;;;;;;23.07;65.00;94033.98;1703385;82;21095;-61
2021/07/05 08:31:44;;;;;;;8.65;4.85;;;;;;;23.12;65.78;94040.14;1701246;82;21102;-63
2021/07/05 08:34:11;;;;;;;13.62;4.60;;;;;;;23.09;66.47;94037.00;1704050;82;20998;-59
2021/07/05 08:36:40;;;;;;;12.63;4.87;;;;;;;23.09;66.84;94034.19;1702190;82;21121;-64
2021/07/05 08:39:10;;;;;;;4.42;4.00;;;;;;;23.07;66.98;94036.80;1699644;81;21124;-56
2021/07/05 08:41:37;;;;;;;6.65;3.80;;;;;;;23.11;66.96;94027.41;1697509;82;21033;-60
2021/07/05 08:44:06;;;;;;;5.30;4.70;;;;;;;23.17;67.53;94032.90;1708927;82;21081;-58
2021/07/05 08:46:34;;;;;;;6.60;4.97;;;;;;;23.26;66.92;94034.59;1710285;82;21299;-60
2021/07/05 08:49:01;;;;;;;5.42;4.40;;;;;;;23.35;65.44;94034.77;1658387;83;21025;-59
2021/07/05 08:51:29;;;;;;;9.33;5.08;;;;;;;23.44;63.79;94026.61;1653002;84;21155;-57
2021/07/05 08:53:56;;;;;;;5.37;4.28;;;;;;;23.52;62.77;94026.66;1660000;84;21514;-60
2021/07/05 08:56:22;;;;;;;6.55;4.35;;;;;;;23.50;62.20;94027.22;1717648;81;21578;-58
2021/07/05 08:58:51;;;;;;;4.60;4.10;;;;;;;23.55;62.92;94023.52;1729316;81;21052;-58
2021/07/05 09:01:20;;;;;;;5.17;4.30;;;;;;;23.67;63.35;94023.34;1681888;83;21645;-59
2021/07/05 09:03:48;;;;;;;5.25;4.75;;;;;;;23.73;61.31;94021.14;1707326;82;21131;-58
2021/07/05 09:06:25;;;;;;;5.90;4.40;;;;;;;23.78;61.64;94022.30;1697538;82;21948;-59
2021/07/05 09:09:04;;;;;;;4.95;3.67;;;;;;;23.90;62.37;94018.67;1695032;83;21603;-58
2021/07/05 09:11:46;;;;;;;5.80;4.15;;;;;;;24.06;62.49;94019.63;1705783;81;21769;-58
2021/07/05 09:14:20;;;;;;;6.00;4.15;;;;;;;24.24;61.43;94024.23;1705349;82;21073;-57
2021/07/05 09:16:50;;;;;;;7.45;4.40;;;;;;;24.43;59.89;94019.77;1709525;81;21108;-58
2021/07/05 09:19:26;;;;;;;6.92;4.97;;;;;;;24.63;59.55;94023.17;1713527;81;21360;-59
2021/07/05 09:22:01;;;;;;;5.30;4.80;;;;;;;24.89;60.72;94018.67;1713496;82;21047;-60
2021/07/05 09:24:42;;;;;;;7.12;5.10;;;;;;;25.07;58.13;94016.19;1700896;81;21021;-57
2021/07/05 09:27:29;;;;;;;5.03;4.53;;;;;;;25.10;59.33;94020.73;1709539;82;21532;-57
2021/07/05 09:29:56;;;;;;;7.00;4.25;;;;;;;25.06;57.83;94021.73;1704667;82;21286;-59
2021/07/05 09:32:27;;;;;;;29.00;20.05;;;;;;;24.97;56.92;94022.28;1620688;83;21098;-60
2021/07/05 09:34:54;;;;;;;10.58;5.90;;;;;;;24.89;57.12;94024.30;1706750;82;21104;-58
2021/07/05 09:37:24;;;;;;;6.15;4.58;;;;;;;24.81;56.49;94017.91;1708297;81;21082;-59
2021/07/05 09:40:08;;;;;;;6.50;4.60;;;;;;;24.71;58.17;94021.13;1677897;83;21111;-59
2021/07/05 09:42:42;;;;;;;7.78;6.20;;;;;;;24.59;57.83;94027.01;1676712;83;21782;-57
2021/07/05 09:45:30;;;;;;;8.15;6.55;;;;;;;24.47;57.32;94020.16;1707900;81;21191;-58
2021/07/05 09:48:23;;;;;;;6.00;4.87;;;;;;;24.40;57.85;94016.66;1698283;82;21121;-57
2021/07/05 09:51:00;;;;;;;6.78;4.47;;;;;;;24.42;57.70;94023.22;1708532;81;21079;-58
2021/07/05 09:53:40;;;;;;;19.90;6.45;;;;;;;24.42;56.52;94018.27;1712590;82;20994;-58
2021/07/05 09:56:28;;;;;;;7.30;5.22;;;;;;;24.40;56.65;94022.28;1693419;81;21744;-57
2021/07/05 09:59:16;;;;;;;8.90;5.03;;;;;;;24.45;57.63;94026.35;1709709;81;21133;-58
2021/07/05 10:01:51;;;;;;;6.45;4.72;;;;;;;24.56;56.47;94015.47;1695629;81;21149;-60
2021/07/05 10:04:24;;;;;;;12.78;5.97;;;;;;;24.70;57.58;94016.81;1697733;82;21209;-59
2021/07/05 10:06:52;;;;;;;6.12;4.40;;;;;;;24.76;56.70;94018.83;1702055;82;21149;-60
2021/07/05 10:09:43;;;;;;;5.95;4.00;;;;;;;24.89;56.08;94018.67;1717821;82;21218;-58
2021/07/05 10:12:26;;;;;;;6.10;4.53;;;;;;;24.96;53.65;94017.96;1722542;82;21026;-58
2021/07/05 10:15:09;;;;;;;6.35;4.55;;;;;;;24.98;54.71;94018.16;1702552;81;21563;-59
2021/07/05 10:17:40;;;;;;;7.53;5.22;;;;;;;25.10;53.42;94013.70;1699295;81;22021;-56
2021/07/05 10:20:11;;;;;;;7.92;4.67;;;;;;;25.27;53.51;94011.88;1692398;82;21050;-59
2021/07/05 10:22:40;;;;;;;5.25;4.50;;;;;;;25.45;53.58;94008.63;1716602;82;21138;-60
2021/07/05 10:25:09;;;;;;;4.87;4.20;;;;;;;25.66;53.46;94016.25;1734157;81;21093;-56
2021/07/05 10:27:35;;;;;;;5.35;4.08;;;;;;;25.90;54.75;94017.89;1705371;81;21036;-58
2021/07/05 10:30:05;;;;;;;6.05;4.45;;;;;;;26.17;54.51;94020.39;1652051;85;21851;-59
2021/07/05 10:32:32;;;;;;;8.45;5.50;;;;;;;26.36;54.39;94021.49;1684146;83;21148;-57
2021/07/05 10:34:58;;;;;;;5.00;3.85;;;;;;;26.34;50.76;94015.64;1671488;85;21218;-57
2021/07/05 10:37:53;;;;;;;4.90;4.42;;;;;;;26.28;52.63;94020.73;1633749;86;21521;-58
2021/07/05 10:40:25;;;;;;;6.58;4.78;;;;;;;26.31;52.73;94019.60;1682090;83;21520;-63
2021/07/05 10:42:57;;;;;;;;;;;;;;;26.39;52.25;94017.53;1683952;84;21061;-58
2021/07/05 10:45:53;;;;;;;5.67;4.27;;;;;;;26.68;53.12;94023.02;1670369;85;20171;-59
2021/07/05 10:48:40;;;;;;;6.42;4.30;;;;;;;27.02;52.97;94018.28;1699234;83;21169;-62
2021/07/05 10:51:09;;;;;;;7.80;3.22;;;;;;;27.44;50.83;94013.55;1690588;82;21145;-58
2021/07/05 10:53:45;;;;;;;6.65;4.10;;;;;;;27.70;47.81;94012.34;1700717;82;21567;-62
2021/07/05 10:56:42;;;;;;;4.30;3.90;;;;;;;27.57;47.30;94016.85;1706573;82;20967;-56
2021/07/05 10:59:18;;;;;;;4.67;3.72;;;;;;;27.38;46.29;94010.21;1676573;83;21910;-61
2021/07/05 11:01:48;;;;;;;4.35;3.35;;;;;;;27.28;47.20;94024.20;1698631;83;21339;-58
2021/07/05 11:04:31;;;;;;;3.30;2.75;;;;;;;27.34;47.30;94013.42;1703799;82;21050;-58
2021/07/05 11:07:04;;;;;;;5.17;3.45;;;;;;;27.23;46.70;94011.03;1721528;82;21046;-59
2021/07/05 11:09:31;;;;;;;4.28;3.25;;;;;;;27.20;46.66;94024.89;1702029;83;21617;-58
2021/07/05 11:11:59;;;;;;;4.70;3.33;;;;;;;27.13;47.01;94015.05;1693744;82;21034;-57
2021/07/05 11:14:37;;;;;;;6.65;5.42;;;;;;;27.12;48.38;94025.61;1640607;86;21151;-58
2021/07/05 11:17:21;;;;;;;6.65;5.37;;;;;;;27.03;49.50;94019.11;1651166;84;21571;-57
2021/07/05 11:20:00;;;;;;;3.98;3.60;;;;;;;26.96;50.48;94036.84;1649938;84;21025;-58
2021/07/05 11:22:35;;;;;;;5.08;3.70;;;;;;;26.85;50.20;94033.02;1645389;84;21168;-57
2021/07/05 11:25:22;;;;;;;3.75;3.45;;;;;;;26.79;50.08;94030.31;1690874;82;21102;-60
2021/07/05 11:28:02;;;;;;;7.78;4.70;;;;;;;26.74;49.78;94029.87;1712520;82;21147;-58
2021/07/05 11:30:40;;;;;;;4.92;3.87;;;;;;;27.14;50.42;94026.43;1704274;82;21148;-56
2021/07/05 11:33:19;;;;;;;6.22;3.85;;;;;;;27.84;49.01;94022.06;1708768;82;20981;-61
2021/07/05 11:35:53;;;;;;;8.10;3.90;;;;;;;28.39;48.09;94021.88;1717310;81;21016;-63
2021/07/05 11:38:41;;;;;;;5.08;3.47;;;;;;;28.58;46.44;94029.81;1699316;82;21067;-57
2021/07/05 11:41:24;;;;;;;4.62;3.15;;;;;;;28.71;46.68;94024.56;1711614;81;22224;-59
2021/07/05 11:44:10;;;;;;;6.78;4.55;;;;;;;28.57;46.68;94027.63;1704450;82;21017;-56
2021/07/05 11:46:39;;;;;;;4.75;3.40;;;;;;;28.45;47.49;94035.78;1706411;81;21104;-61